Time;durP1;ratioP1;P1;durP2;ratioP2;P2;SDS_P1;SDS_P2;PMS_P1;PMS_P2;Temp;Humidity;BMP_temperature;BMP_pressure;BME280_temperature;BME280_humidity;BME280_pressure;Samples;Min_cycle;Max_cycle;Signal;HPM_P1;HPM_P2
2022/04/29 00:00:14;;;;;;;8.00;5.53;;;11.80;99.90;;;;;;5022635;28;20791;-75
2022/04/29 00:02:41;;;;;;;6.47;4.73;;;12.00;99.90;;;;;;5025067;28;20460;-75
2022/04/29 00:05:11;;;;;;;7.70;5.83;;;11.80;99.90;;;;;;5018516;28;20524;-76
2022/04/29 00:07:40;;;;;;;6.90;5.83;;;11.80;99.90;;;;;;5026331;28;20464;-78
2022/04/29 00:10:08;;;;;;;12.20;5.97;;;11.90;99.90;;;;;;5024036;28;20489;-76
2022/04/29 00:12:35;;;;;;;6.87;4.90;;;11.90;99.90;;;;;;5018537;28;20534;-76
2022/04/29 00:15:02;;;;;;;7.20;4.90;;;11.90;99.90;;;;;;5014071;28;21293;-76
2022/04/29 00:17:30;;;;;;;5.63;4.93;;;11.90;99.90;;;;;;5022389;28;20979;-76
2022/04/29 00:19:56;;;;;;;7.90;5.50;;;11.70;99.90;;;;;;5021003;28;20459;-75
2022/04/29 00:22:23;;;;;;;6.17;5.20;;;11.70;99.90;;;;;;5021822;28;20454;-74
2022/04/29 00:24:51;;;;;;;5.93;4.97;;;11.50;99.90;;;;;;5016937;28;20468;-76
2022/04/29 00:27:18;;;;;;;10.23;5.70;;;11.60;99.90;;;;;;5026948;28;20448;-75
2022/04/29 00:29:45;;;;;;;9.10;5.90;;;11.70;99.90;;;;;;5024918;28;20485;-72
2022/04/29 00:32:11;;;;;;;20.50;6.53;;;11.60;99.90;;;;;;5022498;28;20427;-76
2022/04/29 00:34:38;;;;;;;5.83;4.67;;;11.40;99.90;;;;;;5023897;28;20996;-76
2022/04/29 00:37:05;;;;;;;15.70;6.77;;;11.50;99.90;;;;;;5025819;28;20480;-76
2022/04/29 00:39:32;;;;;;;10.33;6.93;;;11.40;99.90;;;;;;5018357;28;20500;-76
2022/04/29 00:42:00;;;;;;;9.10;4.90;;;11.40;99.90;;;;;;5024300;28;20489;-75
2022/04/29 00:44:27;;;;;;;10.40;4.53;;;11.30;99.90;;;;;;5014517;28;20495;-76
2022/04/29 00:46:53;;;;;;;6.77;4.57;;;11.20;99.90;;;;;;5020967;28;20428;-76
2022/04/29 00:49:20;;;;;;;10.33;5.03;;;11.10;99.90;;;;;;5022660;28;20491;-76
2022/04/29 00:51:49;;;;;;;15.60;5.87;;;11.00;99.90;;;;;;5021681;28;20475;-75
2022/04/29 00:54:22;;;;;;;8.73;5.63;;;11.00;99.90;;;;;;5025803;28;20416;-76
2022/04/29 00:56:52;;;;;;;9.80;5.80;;;11.10;99.90;;;;;;5022577;28;20463;-76
2022/04/29 00:59:27;;;;;;;11.43;5.50;;;11.10;99.90;;;;;;5024937;28;20513;-76
2022/04/29 01:01:56;;;;;;;7.30;5.10;;;10.90;99.90;;;;;;5018353;28;20489;-75
2022/04/29 01:04:27;;;;;;;7.50;5.17;;;10.90;99.90;;;;;;5018275;28;20441;-75
2022/04/29 01:06:54;;;;;;;8.63;5.20;;;10.90;99.90;;;;;;5019592;28;20481;-74
2022/04/29 01:09:22;;;;;;;12.13;5.57;;;10.90;99.90;;;;;;5026339;28;20435;-75
2022/04/29 01:11:49;;;;;;;10.23;4.77;;;10.90;99.90;;;;;;5018651;28;20543;-76
2022/04/29 01:14:16;;;;;;;11.77;6.97;;;10.80;99.90;;;;;;5021591;28;20947;-76
2022/04/29 01:16:44;;;;;;;8.70;5.43;;;10.80;99.90;;;;;;5021730;28;20515;-77
2022/04/29 01:19:11;;;;;;;6.23;4.70;;;10.60;99.90;;;;;;5021869;28;20574;-77
2022/04/29 01:21:38;;;;;;;13.70;4.77;;;10.50;99.90;;;;;;5026090;28;21040;-75
2022/04/29 01:24:07;;;;;;;11.30;4.97;;;10.30;99.90;;;;;;5019889;28;20432;-76
2022/04/29 01:26:35;;;;;;;6.80;5.87;;;10.30;99.90;;;;;;5022362;28;20478;-76
2022/04/29 01:29:06;;;;;;;7.40;5.23;;;10.30;99.90;;;;;;5024554;28;20885;-76
2022/04/29 01:31:33;;;;;;;13.40;5.50;;;10.20;99.90;;;;;;5025457;28;20458;-75
2022/04/29 01:34:01;;;;;;;5.20;4.70;;;10.30;99.90;;;;;;5024040;28;20443;-76
2022/04/29 01:36:28;;;;;;;7.07;5.03;;;10.20;99.90;;;;;;5027303;28;20819;-75
2022/04/29 01:38:55;;;;;;;7.47;4.50;;;10.20;99.90;;;;;;5022610;28;20517;-76
2022/04/29 01:41:23;;;;;;;4.90;4.40;;;10.10;99.90;;;;;;5023203;28;20489;-76
2022/04/29 01:43:49;;;;;;;5.03;3.27;;;10.00;99.90;;;;;;5025347;28;20431;-74
2022/04/29 01:46:16;;;;;;;7.50;5.33;;;10.00;99.90;;;;;;5026241;28;20457;-75
2022/04/29 01:48:43;;;;;;;5.33;3.87;;;9.90;99.90;;;;;;5030256;28;20465;-76
2022/04/29 01:51:09;;;;;;;6.30;5.50;;;10.00;99.90;;;;;;5026584;28;20428;-76
2022/04/29 01:53:36;;;;;;;7.50;5.00;;;9.90;99.90;;;;;;5024939;28;20946;-77
2022/04/29 01:56:03;;;;;;;8.23;3.97;;;9.80;99.90;;;;;;5026071;28;20460;-76
2022/04/29 01:58:32;;;;;;;6.17;4.60;;;9.90;99.90;;;;;;5025213;28;20513;-77
2022/04/29 02:00:59;;;;;;;6.57;4.23;;;9.80;99.90;;;;;;5025047;28;20522;-75
2022/04/29 02:03:25;;;;;;;5.60;3.90;;;9.90;99.90;;;;;;5024698;28;20965;-76
2022/04/29 02:05:52;;;;;;;6.80;3.77;;;9.80;99.90;;;;;;5025035;28;20428;-77
2022/04/29 02:08:18;;;;;;;8.07;3.30;;;9.80;99.90;;;;;;5024235;28;20435;-77
2022/04/29 02:10:45;;;;;;;4.27;3.87;;;9.70;99.90;;;;;;5023546;28;20464;-75
2022/04/29 02:13:13;;;;;;;6.07;3.30;;;9.40;99.90;;;;;;5023838;28;20470;-76
2022/04/29 02:15:43;;;;;;;4.40;3.97;;;9.40;99.90;;;;;;5023918;28;20938;-75
2022/04/29 02:18:10;;;;;;;3.53;2.83;;;9.40;99.90;;;;;;5028932;28;20485;-76
2022/04/29 02:20:37;;;;;;;5.33;3.20;;;9.40;99.90;;;;;;5022033;28;20435;-76
2022/04/29 02:23:04;;;;;;;4.83;2.40;;;9.50;99.90;;;;;;5023253;28;20432;-77
2022/04/29 02:25:30;;;;;;;22.90;4.73;;;9.60;99.90;;;;;;5024548;28;20436;-76
2022/04/29 02:27:57;;;;;;;6.13;4.43;;;9.40;99.90;;;;;;5024958;28;20526;-76
2022/04/29 02:30:24;;;;;;;4.20;2.87;;;9.40;99.90;;;;;;5017730;28;20891;-76
2022/04/29 02:32:52;;;;;;;5.50;4.87;;;9.50;99.90;;;;;;5024126;28;21013;-76
2022/04/29 02:35:18;;;;;;;8.13;3.63;;;9.40;99.90;;;;;;5024618;28;20442;-76
2022/04/29 02:37:45;;;;;;;8.17;3.70;;;9.30;99.90;;;;;;5026941;28;21013;-76
2022/04/29 02:40:12;;;;;;;6.83;4.03;;;9.20;99.90;;;;;;5021063;28;20826;-76
2022/04/29 02:42:39;;;;;;;8.53;3.20;;;9.20;99.90;;;;;;5025168;28;20457;-75
2022/04/29 02:45:07;;;;;;;6.07;4.23;;;9.20;99.90;;;;;;5026616;28;20427;-76
2022/04/29 02:47:33;;;;;;;7.70;3.40;;;9.20;99.90;;;;;;5024462;28;20439;-76
2022/04/29 02:50:01;;;;;;;4.20;3.10;;;9.30;99.90;;;;;;5046744;22;20521;-71
2022/04/29 02:52:28;;;;;;;3.93;2.90;;;9.30;99.90;;;;;;5016731;28;20488;-70
2022/04/29 02:54:54;;;;;;;5.03;3.50;;;9.30;99.90;;;;;;5022239;28;20459;-69
2022/04/29 02:57:21;;;;;;;6.10;4.03;;;9.20;99.90;;;;;;5021892;28;20513;-70
2022/04/29 02:59:48;;;;;;;8.50;4.87;;;9.20;99.90;;;;;;5018706;28;20622;-70
2022/04/29 03:02:14;;;;;;;3.83;3.27;;;9.20;99.90;;;;;;5021131;28;20796;-71
2022/04/29 03:04:41;;;;;;;4.80;3.13;;;9.20;99.90;;;;;;5028750;28;20453;-70
2022/04/29 03:07:09;;;;;;;9.30;3.07;;;9.20;99.90;;;;;;5025428;28;20526;-69
2022/04/29 03:09:35;;;;;;;3.90;3.40;;;9.10;99.90;;;;;;5024712;28;20480;-69
2022/04/29 03:12:02;;;;;;;5.93;3.03;;;9.10;99.90;;;;;;5019372;28;20816;-69
2022/04/29 03:14:29;;;;;;;8.10;3.27;;;8.80;99.90;;;;;;5026347;28;20935;-71
2022/04/29 03:16:56;;;;;;;7.40;3.97;;;8.80;99.90;;;;;;5022417;28;21521;-70
2022/04/29 03:19:22;;;;;;;4.40;2.87;;;8.80;99.90;;;;;;5016798;28;20542;-70
2022/04/29 03:21:49;;;;;;;4.00;3.40;;;8.90;99.90;;;;;;5028656;28;20424;-70
2022/04/29 03:24:18;;;;;;;10.07;3.00;;;8.90;99.90;;;;;;5028091;28;21039;-70
2022/04/29 03:26:45;;;;;;;5.00;2.80;;;8.90;99.90;;;;;;5019975;28;20463;-71
2022/04/29 03:29:11;;;;;;;5.17;3.53;;;8.80;99.90;;;;;;5025908;28;20468;-70
2022/04/29 03:31:38;;;;;;;3.87;3.30;;;8.70;99.90;;;;;;5021789;28;20862;-70
2022/04/29 03:34:04;;;;;;;6.80;3.23;;;8.80;99.90;;;;;;5024799;28;21042;-70
2022/04/29 03:36:31;;;;;;;6.97;4.47;;;8.90;99.90;;;;;;5025477;28;20465;-70
2022/04/29 03:38:58;;;;;;;6.20;2.40;;;8.90;99.90;;;;;;5014346;28;20502;-70
2022/04/29 03:41:26;;;;;;;7.50;3.40;;;8.90;99.90;;;;;;5017721;28;20457;-70
2022/04/29 03:43:52;;;;;;;7.93;2.90;;;8.90;99.90;;;;;;5026817;28;20427;-69
2022/04/29 03:46:19;;;;;;;6.13;3.17;;;8.80;99.90;;;;;;5025378;28;20801;-71
2022/04/29 03:51:30;;;;;;;7.17;3.90;;;8.70;99.90;;;;;;5022503;28;20416;-70
2022/04/29 03:53:56;;;;;;;4.80;2.90;;;8.60;99.90;;;;;;5021188;28;20457;-70
2022/04/29 03:56:25;;;;;;;6.40;2.80;;;8.60;99.90;;;;;;5019656;28;20895;-70
2022/04/29 03:58:53;;;;;;;4.80;3.00;;;8.50;99.90;;;;;;5015486;28;20463;-71
2022/04/29 04:01:20;;;;;;;9.23;4.73;;;8.30;99.90;;;;;;5017442;28;20939;-70
2022/04/29 04:03:46;;;;;;;8.10;3.50;;;8.40;99.90;;;;;;5023989;28;20885;-70
2022/04/29 04:08:57;;;;;;;5.33;2.77;;;8.40;99.90;;;;;;5020768;28;20478;-70
2022/04/29 04:11:24;;;;;;;4.07;2.10;;;8.50;99.90;;;;;;5021001;28;20518;-70
2022/04/29 04:13:50;;;;;;;4.70;3.00;;;8.60;99.90;;;;;;5026603;28;20461;-70
2022/04/29 04:16:18;;;;;;;6.43;4.43;;;8.60;99.90;;;;;;5022159;28;20477;-70
2022/04/29 04:18:45;;;;;;;5.87;3.43;;;8.50;99.90;;;;;;5023661;28;20447;-69
2022/04/29 04:21:12;;;;;;;14.70;4.83;;;8.50;99.90;;;;;;5030809;28;20487;-71
2022/04/29 04:23:38;;;;;;;7.37;4.30;;;8.50;99.90;;;;;;5016019;28;20510;-71
2022/04/29 04:26:05;;;;;;;6.63;3.47;;;8.60;99.90;;;;;;5019559;28;20468;-70
2022/04/29 04:28:32;;;;;;;10.60;3.53;;;8.60;99.90;;;;;;5027116;28;20517;-69
2022/04/29 04:30:58;;;;;;;6.40;3.57;;;8.50;99.90;;;;;;5023875;28;20440;-70
2022/04/29 04:33:26;;;;;;;7.17;5.20;;;8.40;99.90;;;;;;5026769;28;20770;-70
2022/04/29 04:35:53;;;;;;;7.40;3.43;;;8.40;99.90;;;;;;5020779;28;20601;-70
2022/04/29 04:38:19;;;;;;;6.20;3.80;;;8.40;99.90;;;;;;5020312;28;24637;-70
2022/04/29 04:40:47;;;;;;;6.63;4.07;;;8.40;99.90;;;;;;5014845;28;20583;-70
2022/04/29 04:43:14;;;;;;;6.50;5.50;;;8.50;99.90;;;;;;5018959;28;20880;-69
2022/04/29 04:45:40;;;;;;;8.13;3.57;;;8.60;99.90;;;;;;5022086;28;20468;-70
2022/04/29 04:48:07;;;;;;;15.33;5.57;;;8.60;99.90;;;;;;5015674;28;20487;-73
2022/04/29 04:50:35;;;;;;;7.20;4.20;;;8.70;99.90;;;;;;5020008;28;20499;-70
2022/04/29 04:53:02;;;;;;;5.27;3.80;;;8.70;99.90;;;;;;5009064;28;20845;-70
2022/04/29 04:55:28;;;;;;;4.93;4.00;;;8.80;99.90;;;;;;5021016;28;20512;-71
2022/04/29 04:57:55;;;;;;;8.57;5.27;;;8.90;99.90;;;;;;5020213;28;20456;-71
2022/04/29 05:00:22;;;;;;;6.60;4.00;;;9.00;99.90;;;;;;5023558;28;20476;-70
2022/04/29 05:02:49;;;;;;;7.13;4.60;;;9.10;99.90;;;;;;5014248;28;20469;-69
2022/04/29 05:05:15;;;;;;;7.30;3.50;;;9.30;99.90;;;;;;5021313;28;20521;-70
2022/04/29 05:07:43;;;;;;;9.67;4.37;;;9.60;99.90;;;;;;5016074;28;20491;-70
2022/04/29 05:10:11;;;;;;;11.30;4.30;;;9.70;99.90;;;;;;5023452;28;20484;-70
2022/04/29 05:12:42;;;;;;;8.80;4.07;;;9.60;99.90;;;;;;5027506;28;20526;-70
2022/04/29 05:15:10;;;;;;;5.77;3.67;;;9.80;99.90;;;;;;5023123;28;20431;-70
2022/04/29 05:17:39;;;;;;;5.73;4.50;;;9.90;99.90;;;;;;5018680;28;20550;-70
2022/04/29 05:20:06;;;;;;;11.20;5.37;;;10.10;99.90;;;;;;5028181;28;20491;-71
2022/04/29 05:22:33;;;;;;;6.50;4.23;;;10.20;99.90;;;;;;5026432;28;20597;-71
2022/04/29 05:25:02;;;;;;;10.13;4.10;;;10.20;99.90;;;;;;5026590;28;20474;-72
2022/04/29 05:27:28;;;;;;;13.83;5.17;;;10.20;99.90;;;;;;5023318;28;20929;-71
2022/04/29 05:29:55;;;;;;;6.77;3.40;;;10.10;99.90;;;;;;5025079;28;20485;-71
2022/04/29 05:32:22;;;;;;;7.37;3.37;;;10.00;99.90;;;;;;5022345;28;20526;-71
2022/04/29 05:34:49;;;;;;;7.93;4.37;;;9.70;99.90;;;;;;5023714;28;20476;-71
2022/04/29 05:37:15;;;;;;;5.80;3.67;;;9.60;99.90;;;;;;5014707;28;20445;-70
2022/04/29 05:42:28;;;;;;;8.70;5.30;;;9.60;99.90;;;;;;5013215;28;20569;-70
2022/04/29 05:44:55;;;;;;;10.53;5.47;;;9.30;99.90;;;;;;5015493;28;20439;-70
2022/04/29 05:47:21;;;;;;;8.33;4.40;;;9.10;99.90;;;;;;5019631;28;20501;-70
2022/04/29 05:49:48;;;;;;;4.03;3.27;;;9.30;99.90;;;;;;5022672;28;20545;-70
2022/04/29 05:52:15;;;;;;;7.37;3.63;;;9.20;99.90;;;;;;5021997;28;20485;-69
2022/04/29 05:54:42;;;;;;;7.53;5.77;;;9.40;99.90;;;;;;5022441;28;20443;-70
2022/04/29 05:57:08;;;;;;;8.70;4.90;;;9.40;99.90;;;;;;5025678;28;20492;-70
2022/04/29 05:59:36;;;;;;;7.73;5.17;;;9.40;99.90;;;;;;5022049;28;20525;-70
2022/04/29 06:02:04;;;;;;;6.43;3.93;;;9.60;99.90;;;;;;5012294;28;20810;-71
2022/04/29 06:04:30;;;;;;;11.60;4.27;;;9.70;99.90;;;;;;5022511;28;20542;-71
2022/04/29 06:06:57;;;;;;;7.43;4.60;;;9.80;99.90;;;;;;5012660;28;20796;-70
2022/04/29 06:09:25;;;;;;;18.47;5.50;;;9.90;99.90;;;;;;5020234;28;21022;-70
2022/04/29 06:11:52;;;;;;;6.90;5.30;;;10.00;99.90;;;;;;5023743;28;20494;-71
2022/04/29 06:14:18;;;;;;;3.83;3.10;;;10.10;99.90;;;;;;5021210;28;20436;-70
2022/04/29 06:16:46;;;;;;;9.50;4.27;;;10.10;99.90;;;;;;5020530;28;20435;-71
2022/04/29 06:19:13;;;;;;;9.47;5.20;;;10.40;99.90;;;;;;5011182;28;20556;-70
2022/04/29 06:21:40;;;;;;;10.27;3.37;;;10.50;99.90;;;;;;5021265;28;20439;-70
2022/04/29 06:24:08;;;;;;;9.33;4.50;;;10.90;99.90;;;;;;5017509;28;20943;-70
2022/04/29 06:26:34;;;;;;;5.00;3.43;;;11.40;99.90;;;;;;5021072;28;20468;-70
2022/04/29 06:29:01;;;;;;;13.80;4.80;;;11.70;99.90;;;;;;5023496;28;20951;-71
2022/04/29 06:31:28;;;;;;;11.10;4.70;;;11.70;99.90;;;;;;5027922;28;20493;-71
2022/04/29 06:33:55;;;;;;;15.27;4.87;;;11.90;99.90;;;;;;5022767;28;20423;-71
2022/04/29 06:36:22;;;;;;;10.10;4.40;;;11.90;99.90;;;;;;5014268;28;20469;-71
2022/04/29 06:38:49;;;;;;;5.70;4.30;;;11.50;99.90;;;;;;5013265;28;20987;-70
2022/04/29 06:41:15;;;;;;;13.43;6.50;;;11.20;99.90;;;;;;5016509;28;20439;-70
2022/04/29 06:43:42;;;;;;;11.10;4.70;;;11.60;99.90;;;;;;5018505;28;20953;-71
2022/04/29 06:46:09;;;;;;;8.23;4.03;;;11.80;99.90;;;;;;5025268;28;20439;-70
2022/04/29 06:48:35;;;;;;;12.80;4.40;;;11.90;99.90;;;;;;5017595;28;20492;-70
2022/04/29 06:51:03;;;;;;;9.77;5.40;;;12.00;99.90;;;;;;5022094;28;20815;-71
2022/04/29 06:53:30;;;;;;;8.13;4.57;;;12.10;99.90;;;;;;5010806;28;20466;-70
2022/04/29 06:55:57;;;;;;;28.80;5.00;;;12.50;99.90;;;;;;5024683;28;20476;-70
2022/04/29 06:58:24;;;;;;;8.57;5.20;;;12.90;99.90;;;;;;5026343;28;20413;-70
2022/04/29 07:00:51;;;;;;;9.33;5.00;;;13.10;99.90;;;;;;5009849;28;20462;-70
2022/04/29 07:03:17;;;;;;;8.73;5.70;;;13.40;99.90;;;;;;5012646;28;20490;-71
2022/04/29 07:05:44;;;;;;;24.03;5.47;;;13.80;99.90;;;;;;5013226;28;20998;-69
2022/04/29 07:08:13;;;;;;;12.50;5.83;;;13.90;99.90;;;;;;5022498;28;20465;-70
2022/04/29 07:10:40;;;;;;;9.80;5.80;;;14.40;99.90;;;;;;5018762;28;20489;-69
2022/04/29 07:13:09;;;;;;;9.43;5.93;;;14.10;99.90;;;;;;5026025;28;20785;-71
2022/04/29 07:15:37;;;;;;;10.53;5.17;;;14.00;99.90;;;;;;5022652;28;20465;-70
2022/04/29 07:18:04;;;;;;;13.07;5.10;;;13.90;99.90;;;;;;5009874;28;20549;-71
2022/04/29 07:20:31;;;;;;;13.20;5.73;;;13.70;99.90;;;;;;5019122;28;20515;-70
2022/04/29 07:22:58;;;;;;;15.87;6.87;;;13.90;99.90;;;;;;5014930;28;20825;-72
2022/04/29 07:25:26;;;;;;;13.80;6.10;;;13.80;99.90;;;;;;5019847;28;20466;-70
2022/04/29 07:27:53;;;;;;;7.67;4.77;;;13.50;99.90;;;;;;5024103;28;20953;-70
2022/04/29 07:30:19;;;;;;;8.17;4.97;;;13.60;99.90;;;;;;5020158;28;20489;-71
2022/04/29 07:32:46;;;;;;;7.30;4.93;;;14.30;99.90;;;;;;5018952;28;20543;-70
2022/04/29 07:43:43;;;;;;;14.93;5.33;;;15.90;99.90;;;;;;4970791;28;20860;-70
2022/04/29 07:46:11;;;;;;;7.57;4.40;;;16.00;99.90;;;;;;4979001;28;20912;-71
2022/04/29 07:48:38;;;;;;;8.60;5.37;;;16.10;99.90;;;;;;4996945;28;20839;-70
2022/04/29 07:51:04;;;;;;;13.27;5.77;;;16.40;99.90;;;;;;5024550;28;20466;-70
2022/04/29 07:53:31;;;;;;;11.47;5.97;;;16.30;99.90;;;;;;5025719;28;20887;-69
2022/04/29 07:55:59;;;;;;;8.90;6.10;;;16.10;99.90;;;;;;5016397;28;20544;-71
2022/04/29 07:58:25;;;;;;;9.27;5.03;;;16.60;99.90;;;;;;5011063;28;20465;-71
2022/04/29 08:00:53;;;;;;;5.67;4.63;;;17.00;99.90;;;;;;5021704;28;20921;-71
2022/04/29 08:03:20;;;;;;;8.17;4.70;;;16.70;99.90;;;;;;5019954;28;20559;-71
2022/04/29 08:05:46;;;;;;;12.60;5.87;;;16.60;99.90;;;;;;5021395;28;20479;-71
2022/04/29 08:08:13;;;;;;;9.83;5.90;;;16.30;99.90;;;;;;5010145;28;21239;-71
2022/04/29 08:10:40;;;;;;;19.43;8.00;;;16.60;99.90;;;;;;5027691;28;20493;-71
2022/04/29 08:13:08;;;;;;;7.60;5.30;;;17.30;99.90;;;;;;5019352;28;20515;-72
2022/04/29 08:15:35;;;;;;;11.97;5.47;;;17.90;99.90;;;;;;5025217;28;20910;-71
2022/04/29 08:18:01;;;;;;;8.37;4.83;;;18.30;99.90;;;;;;5022377;28;20457;-71
2022/04/29 08:20:28;;;;;;;8.40;5.50;;;18.40;99.90;;;;;;5025964;28;20786;-70
2022/04/29 08:22:55;;;;;;;10.53;6.20;;;18.10;99.90;;;;;;5021511;28;20462;-71
2022/04/29 08:25:22;;;;;;;13.37;6.63;;;18.00;99.90;;;;;;5018795;28;20461;-71
2022/04/29 08:27:50;;;;;;;7.77;5.10;;;18.30;99.90;;;;;;5022684;28;20522;-71
2022/04/29 08:30:18;;;;;;;9.83;5.50;;;18.10;99.90;;;;;;5021275;28;20477;-71
2022/04/29 08:32:47;;;;;;;7.57;4.17;;;17.70;99.90;;;;;;5022895;28;20513;-71
2022/04/29 08:35:15;;;;;;;7.17;4.70;;;17.30;99.90;;;;;;5012496;28;20457;-69
2022/04/29 08:37:43;;;;;;;7.70;4.70;;;17.00;99.90;;;;;;5020949;28;20467;-70
2022/04/29 08:40:11;;;;;;;6.90;4.47;;;16.50;99.90;;;;;;5013105;28;20981;-69
2022/04/29 08:42:40;;;;;;;10.17;5.43;;;15.70;99.90;;;;;;5008158;28;20488;-71
2022/04/29 08:45:08;;;;;;;5.70;4.20;;;15.40;99.90;;;;;;5016027;28;20461;-71
2022/04/29 08:47:38;;;;;;;9.20;5.97;;;15.20;99.90;;;;;;5018111;28;20491;-70
2022/04/29 08:50:07;;;;;;;9.83;5.40;;;15.30;99.90;;;;;;5044618;22;20519;-77
2022/04/29 08:52:35;;;;;;;11.27;5.53;;;15.10;99.90;;;;;;5012893;28;20507;-75
2022/04/29 09:00:32;;;;;;;15.70;5.60;;;15.00;99.90;;;;;;5009772;28;20539;-76
2022/04/29 09:03:02;;;;;;;6.57;3.67;;;15.00;99.90;;;;;;4992129;28;20453;-76
2022/04/29 09:05:29;;;;;;;6.27;3.80;;;14.90;99.90;;;;;;5000179;28;20461;-76
2022/04/29 09:07:59;;;;;;;12.00;5.20;;;15.10;99.90;;;;;;4995773;28;20463;-76
2022/04/29 09:10:27;;;;;;;7.27;5.47;;;15.10;99.90;;;;;;4995663;28;20460;-76
2022/04/29 09:12:54;;;;;;;8.63;3.83;;;15.00;99.90;;;;;;4998645;28;20952;-75
2022/04/29 09:15:23;;;;;;;11.53;7.07;;;14.70;99.90;;;;;;4998470;28;20466;-76
2022/04/29 09:17:51;;;;;;;11.00;4.17;;;14.90;99.90;;;;;;4999014;28;20432;-75
2022/04/29 09:20:21;;;;;;;6.93;4.13;;;14.80;99.90;;;;;;4996503;28;20461;-76
2022/04/29 09:22:49;;;;;;;9.70;4.53;;;14.90;99.90;;;;;;4998567;28;20490;-76
2022/04/29 09:25:17;;;;;;;21.50;6.40;;;15.00;99.90;;;;;;4996192;28;20447;-76
2022/04/29 09:27:58;;;;;;;5.60;4.27;;;15.20;99.90;;;;;;4998859;28;20577;-75
2022/04/29 09:30:41;;;;;;;11.03;4.23;;;15.40;99.90;;;;;;4997561;28;20536;-76
2022/04/29 09:33:22;;;;;;;5.33;4.40;;;15.50;99.90;;;;;;5002303;28;20805;-76
2022/04/29 09:35:50;;;;;;;10.77;4.60;;;15.80;99.90;;;;;;4996062;28;20965;-76
2022/04/29 09:41:03;;;;;;;6.90;4.97;;;16.00;99.90;;;;;;4997404;28;20476;-76
2022/04/29 09:43:38;;;;;;;10.40;3.87;;;16.20;99.90;;;;;;4995816;28;20959;-76
2022/04/29 09:46:16;;;;;;;7.50;3.70;;;16.80;99.90;;;;;;4993516;28;20954;-76
2022/04/29 09:48:54;;;;;;;8.37;3.97;;;18.10;99.90;;;;;;4993376;28;20920;-77
2022/04/29 09:51:48;;;;;;;7.03;4.73;;;19.20;99.90;;;;;;5001614;28;20498;-77
2022/04/29 09:54:28;;;;;;;7.70;5.10;;;19.40;99.90;;;;;;5002433;28;20464;-75
2022/04/29 09:57:21;;;;;;;9.83;4.70;;;19.20;99.90;;;;;;5004516;28;20512;-75
2022/04/29 09:59:50;;;;;;;4.80;3.60;;;18.80;99.90;;;;;;4989464;28;20466;-72
2022/04/29 10:02:18;;;;;;;8.70;4.37;;;18.60;99.90;;;;;;4993538;28;20549;-76
2022/04/29 10:04:49;;;;;;;5.70;4.60;;;18.40;99.90;;;;;;4999115;28;20773;-77
2022/04/29 10:07:17;;;;;;;7.23;3.90;;;18.10;99.90;;;;;;5006112;28;20466;-76
2022/04/29 10:09:48;;;;;;;4.63;2.90;;;17.70;99.90;;;;;;5004291;28;20474;-76
2022/04/29 10:12:17;;;;;;;8.67;5.20;;;17.50;99.90;;;;;;4993870;28;20474;-75
2022/04/29 10:14:45;;;;;;;17.00;5.70;;;17.30;99.90;;;;;;5001901;28;20467;-76
2022/04/29 10:22:49;;;;;;;9.70;5.83;;;17.10;99.90;;;;;;4992604;28;20456;-75
2022/04/29 10:25:19;;;;;;;5.13;3.50;;;17.30;99.90;;;;;;4998056;28;20475;-75
2022/04/29 10:27:46;;;;;;;4.60;3.57;;;17.10;99.90;;;;;;5004472;28;20466;-76
2022/04/29 10:30:15;;;;;;;5.23;3.40;;;17.20;99.90;;;;;;5006786;28;20593;-76
2022/04/29 10:33:06;;;;;;;4.00;3.60;;;17.00;99.90;;;;;;4998262;28;20785;-76
2022/04/29 10:35:56;;;;;;;7.77;4.43;;;16.80;99.90;;;;;;5005941;28;20466;-76
2022/04/29 10:38:27;;;;;;;3.60;2.80;;;16.70;99.90;;;;;;4997822;28;20449;-74
2022/04/29 10:41:13;;;;;;;6.40;3.57;;;17.20;99.90;;;;;;4998506;28;20500;-75
2022/04/29 10:43:44;;;;;;;6.40;4.03;;;17.30;99.90;;;;;;4998091;28;20543;-77
2022/04/29 10:46:22;;;;;;;10.47;3.50;;;17.20;99.90;;;;;;4999800;28;20552;-76
2022/04/29 10:48:50;;;;;;;6.50;3.50;;;17.30;99.90;;;;;;5003834;28;20466;-76
2022/04/29 10:51:18;;;;;;;7.00;3.87;;;17.50;99.90;;;;;;4998815;28;20870;-76
2022/04/29 10:53:47;;;;;;;7.40;3.10;;;17.70;99.90;;;;;;5007394;28;20466;-76
2022/04/29 10:56:38;;;;;;;6.00;4.17;;;17.50;99.90;;;;;;5002950;28;20468;-76
2022/04/29 10:59:22;;;;;;;8.40;4.90;;;17.90;99.90;;;;;;4997627;28;20465;-76
2022/04/29 11:02:07;;;;;;;7.53;3.93;;;17.80;99.90;;;;;;4987421;28;20487;-75
2022/04/29 11:04:47;;;;;;;7.50;3.97;;;17.80;99.90;;;;;;4998436;28;20545;-76
2022/04/29 11:07:38;;;;;;;8.03;3.30;;;17.60;99.90;;;;;;5000998;28;20466;-76
2022/04/29 11:10:06;;;;;;;9.73;4.27;;;17.60;99.90;;;;;;5000887;28;20540;-76
2022/04/29 11:12:36;;;;;;;10.83;4.50;;;17.60;99.90;;;;;;5003943;28;21010;-76
2022/04/29 11:15:07;;;;;;;7.70;4.80;;;17.80;99.90;;;;;;4998728;28;20518;-76
2022/04/29 11:17:36;;;;;;;6.33;3.60;;;17.90;99.90;;;;;;5004033;28;20467;-75
2022/04/29 11:20:17;;;;;;;4.90;3.50;;;17.80;99.90;;;;;;4997504;28;21078;-76
2022/04/29 11:25:50;;;;;;;9.70;4.23;;;17.60;99.90;;;;;;4997059;28;20897;-76
2022/04/29 11:28:19;;;;;;;10.10;3.67;;;18.30;99.90;;;;;;5003879;28;20465;-76
2022/04/29 11:30:45;;;;;;;8.97;5.10;;;19.00;99.90;;;;;;5000527;28;20497;-76
2022/04/29 11:33:12;;;;;;;10.30;6.20;;;19.10;99.90;;;;;;4990648;28;20478;-76
2022/04/29 11:35:39;;;;;;;12.83;5.00;;;18.90;99.90;;;;;;4999122;28;20525;-76
2022/04/29 11:38:08;;;;;;;6.50;3.70;;;18.70;99.90;;;;;;5001277;28;20461;-76
2022/04/29 11:40:38;;;;;;;6.13;4.00;;;18.70;99.90;;;;;;4997736;28;20898;-76
2022/04/29 11:43:12;;;;;;;7.27;5.30;;;18.30;99.90;;;;;;4991681;28;20463;-76
2022/04/29 11:45:41;;;;;;;7.17;4.20;;;18.30;99.90;;;;;;5000663;28;20467;-73
2022/04/29 11:48:09;;;;;;;54.83;11.10;;;18.10;99.90;;;;;;4997898;28;20469;-75
2022/04/29 11:50:40;;;;;;;10.97;4.80;;;18.40;99.90;;;;;;5001763;28;20483;-74
2022/04/29 11:53:08;;;;;;;8.20;4.60;;;18.60;99.90;;;;;;4996155;28;22112;-75
2022/04/29 11:55:35;;;;;;;6.53;4.40;;;18.60;99.90;;;;;;5003173;28;20455;-76
2022/04/29 11:58:03;;;;;;;9.70;5.13;;;18.90;99.90;;;;;;5001217;28;20600;-76
2022/04/29 12:00:31;;;;;;;14.67;6.63;;;19.30;99.90;;;;;;4996865;28;20477;-76
2022/04/29 12:03:01;;;;;;;13.03;4.27;;;19.60;99.90;;;;;;4998087;28;20945;-76
2022/04/29 12:05:29;;;;;;;9.27;3.83;;;19.90;99.90;;;;;;5001105;28;20538;-76
2022/04/29 12:08:02;;;;;;;4.40;3.87;;;19.70;99.90;;;;;;4998086;28;20722;-77
2022/04/29 12:10:30;;;;;;;7.63;4.17;;;20.00;99.90;;;;;;5004471;28;20553;-76
2022/04/29 12:12:58;;;;;;;8.33;4.60;;;20.00;99.90;;;;;;5000610;28;20951;-76
2022/04/29 12:15:28;;;;;;;6.80;4.53;;;20.10;99.90;;;;;;4997535;28;20471;-76
2022/04/29 12:18:00;;;;;;;7.23;4.43;;;20.20;99.90;;;;;;5001395;28;20462;-75
2022/04/29 12:20:28;;;;;;;12.60;4.40;;;20.10;99.90;;;;;;5001926;28;20483;-76
2022/04/29 12:22:55;;;;;;;9.73;3.60;;;20.00;99.90;;;;;;5001487;28;20523;-74
2022/04/29 12:25:29;;;;;;;7.47;5.13;;;20.40;99.90;;;;;;5000609;28;20466;-76
2022/04/29 12:28:08;;;;;;;6.97;4.20;;;20.20;99.90;;;;;;4999905;28;20493;-76
2022/04/29 12:36:10;;;;;;;7.17;4.40;;;19.40;99.90;;;;;;5001451;28;20504;-77
2022/04/29 12:38:38;;;;;;;8.03;4.43;;;19.60;99.90;;;;;;4997412;28;20463;-76
2022/04/29 12:41:23;;;;;;;5.33;4.20;;;20.10;99.40;;;;;;4998798;28;20484;-77
2022/04/29 12:43:50;;;;;;;11.70;4.47;;;20.10;99.40;;;;;;5008197;28;20521;-77
2022/04/29 12:46:18;;;;;;;8.83;5.07;;;20.10;99.90;;;;;;5007131;28;20470;-77
2022/04/29 12:48:48;;;;;;;5.53;4.63;;;20.10;99.90;;;;;;5000126;28;20807;-75
2022/04/29 12:51:25;;;;;;;7.40;4.33;;;20.30;99.90;;;;;;4997044;28;21034;-77
2022/04/29 12:53:52;;;;;;;6.20;4.33;;;20.50;99.90;;;;;;5004531;28;20519;-76
2022/04/29 12:56:26;;;;;;;7.17;4.40;;;20.20;98.50;;;;;;5003248;28;20489;-76
2022/04/29 12:58:53;;;;;;;11.23;5.30;;;19.90;98.90;;;;;;4997142;28;20465;-76
2022/04/29 13:01:20;;;;;;;11.50;5.90;;;19.60;99.60;;;;;;4998055;28;20512;-76
2022/04/29 13:03:52;;;;;;;9.43;5.33;;;18.90;99.90;;;;;;4994422;28;20880;-76
2022/04/29 13:06:20;;;;;;;11.97;6.17;;;19.00;99.90;;;;;;4996131;28;20462;-75
2022/04/29 13:08:48;;;;;;;7.53;6.47;;;19.20;99.90;;;;;;4999443;28;20508;-76
2022/04/29 13:11:16;;;;;;;9.40;5.17;;;19.10;99.90;;;;;;5005566;28;20481;-77
2022/04/29 13:13:43;;;;;;;9.90;5.10;;;19.00;99.90;;;;;;5005492;28;20465;-76
2022/04/29 13:16:10;;;;;;;12.03;6.23;;;18.90;99.90;;;;;;5002639;28;20838;-75
2022/04/29 13:18:36;;;;;;;9.70;6.17;;;19.00;99.90;;;;;;4996203;28;20470;-77
2022/04/29 13:21:07;;;;;;;7.67;5.83;;;18.60;99.90;;;;;;5000931;28;20491;-75
2022/04/29 13:23:34;;;;;;;9.37;5.97;;;18.90;99.90;;;;;;5002686;28;20613;-76
2022/04/29 13:26:02;;;;;;;9.90;4.83;;;18.90;99.90;;;;;;5004614;28;20491;-76
2022/04/29 13:28:29;;;;;;;13.00;6.60;;;18.80;99.90;;;;;;5001798;28;20477;-77
2022/04/29 13:30:56;;;;;;;9.37;6.23;;;18.70;99.90;;;;;;5011208;28;20486;-76
2022/04/29 13:33:22;;;;;;;8.40;5.70;;;18.40;99.90;;;;;;5009949;28;20458;-76